Time;durP1;ratioP1;P1;durP2;ratioP2;P2;SDS_P1;SDS_P2;PMS_P1;PMS_P2;Temp;Humidity;BMP_temperature;BMP_pressure;BME280_temperature;BME280_humidity;BME280_pressure;Samples;Min_cycle;Max_cycle;Signal;HPM_P1;HPM_P2
2022/07/10 00:02:05;;;;;;;4.07;1.77;;;;;;;;;;6070570;23;20023;-79
2022/07/10 00:04:33;;;;;;;5.18;1.20;;;;;;;;;;6070429;23;20035;-80
2022/07/10 00:07:01;;;;;;;7.50;1.90;;;;;;;;;;6069691;23;20027;-79
2022/07/10 00:09:29;;;;;;;5.80;1.40;;;;;;;;;;6068443;23;20034;-79
2022/07/10 00:11:56;;;;;;;6.07;1.20;;;;;;;;;;6070689;23;20473;-79
2022/07/10 00:14:23;;;;;;;6.97;1.83;;;;;;;;;;6070344;23;20965;-80
2022/07/10 00:16:50;;;;;;;6.65;1.38;;;;;;;;;;6070292;23;20042;-78
2022/07/10 00:19:17;;;;;;;8.77;1.40;;;;;;;;;;6070403;23;20083;-78
2022/07/10 00:21:44;;;;;;;8.05;1.50;;;;;;;;;;6068462;23;20847;-78
2022/07/10 00:24:12;;;;;;;8.75;1.80;;;;;;;;;;6070236;23;20050;-79
2022/07/10 00:26:39;;;;;;;4.57;1.40;;;;;;;;;;6070016;23;20059;-79
2022/07/10 00:29:06;;;;;;;7.93;1.70;;;;;;;;;;6070363;23;20066;-79
2022/07/10 00:31:33;;;;;;;5.22;1.80;;;;;;;;;;6070252;23;20107;-79
2022/07/10 00:34:00;;;;;;;7.28;1.42;;;;;;;;;;6069873;23;20027;-77
2022/07/10 00:36:27;;;;;;;10.43;1.60;;;;;;;;;;6069415;23;20637;-78
2022/07/10 00:38:54;;;;;;;8.50;1.83;;;;;;;;;;6070522;23;20024;-78
2022/07/10 00:41:21;;;;;;;7.28;1.77;;;;;;;;;;6070037;23;20114;-78
2022/07/10 00:43:53;;;;;;;8.98;2.33;;;;;;;;;;6069859;23;20825;-78
2022/07/10 00:46:20;;;;;;;8.18;1.60;;;;;;;;;;6069493;23;20131;-79
2022/07/10 00:48:48;;;;;;;8.15;1.50;;;;;;;;;;6070141;23;20109;-78
2022/07/10 00:51:17;;;;;;;5.13;1.55;;;;;;;;;;6069112;23;20102;-78
2022/07/10 00:53:48;;;;;;;6.03;1.70;;;;;;;;;;6069603;23;20030;-79
2022/07/10 00:56:19;;;;;;;12.90;1.73;;;;;;;;;;6070137;23;20034;-79
2022/07/10 00:58:46;;;;;;;6.20;1.52;;;;;;;;;;6069922;23;20023;-79
2022/07/10 01:01:14;;;;;;;4.15;1.63;;;;;;;;;;6070190;23;20876;-78
2022/07/10 01:03:41;;;;;;;9.07;1.60;;;;;;;;;;6044743;23;20027;-78
2022/07/10 01:06:09;;;;;;;8.30;1.48;;;;;;;;;;6069872;23;20060;-78
2022/07/10 01:08:36;;;;;;;4.10;1.40;;;;;;;;;;6069842;23;20131;-77
2022/07/10 01:11:04;;;;;;;7.50;1.40;;;;;;;;;;6069817;23;20027;-78
2022/07/10 01:13:31;;;;;;;4.63;1.40;;;;;;;;;;6069994;23;20103;-78
2022/07/10 01:15:58;;;;;;;5.20;1.70;;;;;;;;;;6069918;23;20106;-77
2022/07/10 01:18:26;;;;;;;6.63;1.80;;;;;;;;;;6069208;23;20073;-77
2022/07/10 01:20:54;;;;;;;12.45;2.00;;;;;;;;;;6068853;23;20027;-78
2022/07/10 01:23:21;;;;;;;7.35;1.58;;;;;;;;;;6068923;23;20111;-78
2022/07/10 01:25:50;;;;;;;8.35;1.55;;;;;;;;;;6070142;23;20032;-78
2022/07/10 01:28:17;;;;;;;7.50;1.90;;;;;;;;;;6069833;23;20031;-78
2022/07/10 01:30:44;;;;;;;8.70;1.95;;;;;;;;;;6069345;23;20030;-78
2022/07/10 01:33:11;;;;;;;5.20;1.38;;;;;;;;;;6070079;23;20034;-77
2022/07/10 01:35:39;;;;;;;3.75;1.23;;;;;;;;;;6069350;23;20051;-78
2022/07/10 01:38:06;;;;;;;7.70;1.52;;;;;;;;;;6069806;23;20098;-78
2022/07/10 01:40:34;;;;;;;5.00;1.30;;;;;;;;;;6069746;23;20062;-79
2022/07/10 01:43:01;;;;;;;4.95;1.58;;;;;;;;;;6069180;23;20027;-78
2022/07/10 01:45:28;;;;;;;6.75;1.50;;;;;;;;;;6070221;23;20028;-78
2022/07/10 01:47:56;;;;;;;7.15;1.52;;;;;;;;;;6068538;23;20024;-78
2022/07/10 01:50:24;;;;;;;4.82;1.45;;;;;;;;;;6069643;23;20116;-78
2022/07/10 01:52:51;;;;;;;8.93;1.65;;;;;;;;;;6069555;23;20016;-78
2022/07/10 01:55:18;;;;;;;4.93;1.33;;;;;;;;;;6069617;23;20059;-78
2022/07/10 01:57:45;;;;;;;7.88;1.70;;;;;;;;;;6069221;23;20110;-78
2022/07/10 02:00:12;;;;;;;5.20;1.60;;;;;;;;;;6066490;23;20094;-78
2022/07/10 02:02:39;;;;;;;6.22;1.30;;;;;;;;;;6068800;23;20871;-78
2022/07/10 02:05:08;;;;;;;5.28;1.70;;;;;;;;;;6069083;23;20064;-78
2022/07/10 02:07:35;;;;;;;6.85;1.48;;;;;;;;;;6068809;23;20098;-78
2022/07/10 02:10:02;;;;;;;6.15;1.45;;;;;;;;;;6069862;23;20066;-77
2022/07/10 02:12:29;;;;;;;5.30;1.38;;;;;;;;;;6068960;23;20023;-78
2022/07/10 02:14:59;;;;;;;7.82;1.48;;;;;;;;;;6069799;23;20067;-78
2022/07/10 02:17:26;;;;;;;9.27;1.65;;;;;;;;;;6069489;23;20051;-77
2022/07/10 02:19:53;;;;;;;2.33;1.38;;;;;;;;;;6069668;23;20024;-78
2022/07/10 02:22:20;;;;;;;6.10;1.70;;;;;;;;;;6068069;23;20028;-78
2022/07/10 02:24:47;;;;;;;7.60;1.40;;;;;;;;;;6069588;23;20027;-78
2022/07/10 02:27:14;;;;;;;8.27;1.38;;;;;;;;;;6069962;23;20054;-78
2022/07/10 02:29:41;;;;;;;4.35;1.30;;;;;;;;;;6068787;23;20034;-78
2022/07/10 02:32:08;;;;;;;10.30;1.55;;;;;;;;;;6069783;23;20079;-78
2022/07/10 02:34:36;;;;;;;5.18;1.30;;;;;;;;;;6069747;23;20752;-78
2022/07/10 02:37:03;;;;;;;7.55;1.48;;;;;;;;;;6068370;23;20023;-78
2022/07/10 02:39:30;;;;;;;4.53;1.42;;;;;;;;;;6069623;23;20023;-77
2022/07/10 02:41:57;;;;;;;4.53;1.40;;;;;;;;;;6069456;23;20023;-78
2022/07/10 02:44:24;;;;;;;7.78;1.58;;;;;;;;;;6069658;23;20106;-78
2022/07/10 02:46:51;;;;;;;5.40;1.35;;;;;;;;;;6069142;23;20485;-78
2022/07/10 02:49:19;;;;;;;7.93;1.30;;;;;;;;;;6068768;23;20037;-78
2022/07/10 02:51:46;;;;;;;7.78;1.48;;;;;;;;;;6068098;23;20055;-78
2022/07/10 02:54:13;;;;;;;7.03;1.60;;;;;;;;;;6067820;23;20107;-77
2022/07/10 02:56:40;;;;;;;9.63;1.90;;;;;;;;;;6069979;23;20701;-78
2022/07/10 02:59:07;;;;;;;6.00;1.27;;;;;;;;;;6069114;23;20037;-77
2022/07/10 03:01:34;;;;;;;8.68;1.75;;;;;;;;;;6069195;23;20033;-77
2022/07/10 03:04:02;;;;;;;7.65;1.40;;;;;;;;;;6069019;23;20023;-80
2022/07/10 03:06:29;;;;;;;4.35;1.40;;;;;;;;;;6068798;23;20024;-78
2022/07/10 03:08:56;;;;;;;6.43;1.80;;;;;;;;;;6068993;23;20058;-77
2022/07/10 03:11:23;;;;;;;7.57;1.30;;;;;;;;;;6070098;23;20549;-78
2022/07/10 03:13:51;;;;;;;6.70;1.42;;;;;;;;;;6070804;23;20034;-80
2022/07/10 03:16:18;;;;;;;7.28;1.80;;;;;;;;;;6070327;23;20024;-78
2022/07/10 03:18:45;;;;;;;6.72;1.48;;;;;;;;;;6070161;23;20806;-79
2022/07/10 03:21:12;;;;;;;6.90;1.60;;;;;;;;;;6070061;23;20091;-78
2022/07/10 03:23:40;;;;;;;10.90;1.60;;;;;;;;;;6072904;23;20651;-78
2022/07/10 03:26:07;;;;;;;10.43;1.58;;;;;;;;;;6077202;23;20610;-79
2022/07/10 03:28:35;;;;;;;8.13;1.65;;;;;;;;;;6074617;23;20051;-80
2022/07/10 03:31:03;;;;;;;5.68;1.50;;;;;;;;;;6072108;23;20023;-80
2022/07/10 03:33:30;;;;;;;4.90;1.20;;;;;;;;;;6047602;23;20031;-78
2022/07/10 03:35:57;;;;;;;7.47;1.80;;;;;;;;;;6072649;23;20091;-79
2022/07/10 03:38:24;;;;;;;7.60;1.70;;;;;;;;;;6070472;23;20095;-78
2022/07/10 03:40:51;;;;;;;6.95;1.40;;;;;;;;;;6070632;23;20024;-78
2022/07/10 03:43:18;;;;;;;8.65;1.48;;;;;;;;;;6071085;23;20100;-78
2022/07/10 03:45:45;;;;;;;4.35;1.33;;;;;;;;;;6070828;23;20772;-78
2022/07/10 03:48:13;;;;;;;8.25;1.60;;;;;;;;;;6075216;23;20598;-79
2022/07/10 03:50:40;;;;;;;3.75;1.45;;;;;;;;;;6072087;23;20102;-79
2022/07/10 03:53:07;;;;;;;7.35;1.63;;;;;;;;;;6070493;23;20776;-79
2022/07/10 03:55:34;;;;;;;7.75;1.80;;;;;;;;;;6070530;23;20135;-78
2022/07/10 03:58:02;;;;;;;4.93;1.30;;;;;;;;;;6070473;23;20693;-79
2022/07/10 04:00:33;;;;;;;6.53;1.50;;;;;;;;;;6070840;23;20031;-78
2022/07/10 04:03:04;;;;;;;6.35;1.60;;;;;;;;;;6070862;23;20123;-79
2022/07/10 04:05:31;;;;;;;6.47;1.60;;;;;;;;;;6070161;23;20094;-78
2022/07/10 04:07:59;;;;;;;8.80;1.90;;;;;;;;;;6069904;23;20458;-78
2022/07/10 04:10:26;;;;;;;9.07;1.73;;;;;;;;;;6045078;23;20031;-78
2022/07/10 04:12:54;;;;;;;9.80;1.20;;;;;;;;;;6070942;23;20031;-78
2022/07/10 04:15:21;;;;;;;8.93;2.33;;;;;;;;;;6070208;23;20027;-78
2022/07/10 04:17:48;;;;;;;6.72;1.60;;;;;;;;;;6069884;23;20034;-79
2022/07/10 04:20:16;;;;;;;5.78;1.30;;;;;;;;;;6070772;23;20023;-78
2022/07/10 04:22:43;;;;;;;7.50;1.48;;;;;;;;;;6070632;23;20063;-78
2022/07/10 04:25:11;;;;;;;7.30;1.83;;;;;;;;;;6070373;23;20022;-78
2022/07/10 04:27:38;;;;;;;6.60;1.40;;;;;;;;;;6070828;23;20771;-78
2022/07/10 04:30:06;;;;;;;4.55;1.27;;;;;;;;;;6069547;23;20047;-78
2022/07/10 04:32:33;;;;;;;9.00;1.73;;;;;;;;;;6070357;23;20753;-78
2022/07/10 04:35:03;;;;;;;7.82;1.92;;;;;;;;;;6069466;23;20711;-78
2022/07/10 04:37:30;;;;;;;8.27;1.52;;;;;;;;;;6070253;23;20078;-78
2022/07/10 04:39:58;;;;;;;4.38;1.35;;;;;;;;;;6069919;23;20023;-80
2022/07/10 04:42:25;;;;;;;5.72;1.63;;;;;;;;;;6044859;23;20803;-80
2022/07/10 04:44:55;;;;;;;5.40;1.70;;;;;;;;;;6070251;23;20135;-80
2022/07/10 04:47:22;;;;;;;9.68;1.85;;;;;;;;;;6070255;23;20062;-80
2022/07/10 04:49:49;;;;;;;12.05;1.85;;;;;;;;;;6069821;23;20934;-80
2022/07/10 04:52:16;;;;;;;10.68;1.77;;;;;;;;;;6069532;23;20765;-79
2022/07/10 04:54:44;;;;;;;4.75;1.38;;;;;;;;;;6069980;23;20046;-79
2022/07/10 04:57:11;;;;;;;10.50;2.00;;;;;;;;;;6069528;23;20027;-80
2022/07/10 04:59:38;;;;;;;9.32;1.88;;;;;;;;;;6069947;23;20079;-79
2022/07/10 05:02:07;;;;;;;8.90;2.08;;;;;;;;;;6070573;23;20063;-80
2022/07/10 05:04:34;;;;;;;7.13;1.33;;;;;;;;;;6068704;23;20051;-80
2022/07/10 05:07:01;;;;;;;4.97;1.50;;;;;;;;;;6070481;23;20485;-79
2022/07/10 05:09:28;;;;;;;8.35;1.92;;;;;;;;;;6070053;23;20069;-79
2022/07/10 05:11:55;;;;;;;13.07;1.50;;;;;;;;;;6043956;23;20027;-79
2022/07/10 05:14:23;;;;;;;9.20;1.77;;;;;;;;;;6070612;23;20362;-79
2022/07/10 05:16:50;;;;;;;4.90;1.42;;;;;;;;;;6069848;23;20098;-79
2022/07/10 05:19:17;;;;;;;11.70;1.73;;;;;;;;;;6069798;23;20855;-79
2022/07/10 05:21:44;;;;;;;7.15;1.50;;;;;;;;;;6069854;23;20111;-79
2022/07/10 05:24:11;;;;;;;10.50;1.88;;;;;;;;;;6070624;23;20030;-80
2022/07/10 05:26:40;;;;;;;6.68;1.58;;;;;;;;;;6069735;23;20024;-80
2022/07/10 05:29:07;;;;;;;8.75;1.65;;;;;;;;;;6068924;23;20115;-80
2022/07/10 05:31:34;;;;;;;5.65;1.50;;;;;;;;;;6070438;23;20027;-80
2022/07/10 05:34:02;;;;;;;8.15;1.65;;;;;;;;;;6068560;23;20755;-80
2022/07/10 05:36:29;;;;;;;8.27;1.48;;;;;;;;;;6069650;23;20079;-79
2022/07/10 05:38:56;;;;;;;10.00;1.75;;;;;;;;;;6070170;23;20918;-80
2022/07/10 05:41:23;;;;;;;5.13;1.55;;;;;;;;;;6068993;23;20097;-79
2022/07/10 05:43:50;;;;;;;9.20;1.70;;;;;;;;;;6068189;23;20034;-81
2022/07/10 05:46:17;;;;;;;10.38;1.67;;;;;;;;;;6042590;23;20140;-81
2022/07/10 05:48:45;;;;;;;6.43;1.30;;;;;;;;;;6068333;23;20027;-80
2022/07/10 05:51:12;;;;;;;6.78;1.88;;;;;;;;;;6066485;23;20079;-81
2022/07/10 05:53:59;;;;;;;7.07;1.52;;;;;;;;;;6068643;23;20098;-81
2022/07/10 05:56:26;;;;;;;7.20;1.80;;;;;;;;;;6069213;23;20023;-81
2022/07/10 05:58:55;;;;;;;6.80;1.48;;;;;;;;;;6068813;23;20110;-81
2022/07/10 06:01:23;;;;;;;7.07;1.70;;;;;;;;;;6068835;23;20054;-82
2022/07/10 06:03:50;;;;;;;10.38;1.63;;;;;;;;;;6069537;23;20121;-81
2022/07/10 06:06:17;;;;;;;8.48;2.03;;;;;;;;;;6069394;23;20034;-82
2022/07/10 06:08:44;;;;;;;9.63;1.70;;;;;;;;;;6069543;23;20107;-81
2022/07/10 06:11:12;;;;;;;7.35;1.40;;;;;;;;;;6069827;23;20477;-81
2022/07/10 06:13:40;;;;;;;6.60;1.58;;;;;;;;;;6069082;23;20103;-82
2022/07/10 06:16:07;;;;;;;10.68;1.95;;;;;;;;;;6069151;23;20024;-82
2022/07/10 06:18:34;;;;;;;7.60;1.88;;;;;;;;;;6066683;23;20023;-80
2022/07/10 06:21:02;;;;;;;7.72;1.67;;;;;;;;;;6068224;23;20024;-80
2022/07/10 06:23:32;;;;;;;9.43;1.70;;;;;;;;;;6068588;23;20470;-80
2022/07/10 06:26:00;;;;;;;7.22;1.63;;;;;;;;;;6069583;23;20038;-80
2022/07/10 06:28:27;;;;;;;7.22;1.63;;;;;;;;;;6069671;23;20058;-79
2022/07/10 06:30:54;;;;;;;7.50;1.73;;;;;;;;;;6069624;23;20033;-79
2022/07/10 06:33:26;;;;;;;13.43;2.00;;;;;;;;;;6045724;23;20098;-80
2022/07/10 06:35:53;;;;;;;5.28;1.80;;;;;;;;;;6069272;23;20103;-79
2022/07/10 06:38:20;;;;;;;6.22;1.70;;;;;;;;;;6069584;23;20019;-79
2022/07/10 06:40:48;;;;;;;7.18;1.48;;;;;;;;;;6069552;23;20034;-79
2022/07/10 06:43:15;;;;;;;8.60;1.83;;;;;;;;;;6068750;23;20029;-79
2022/07/10 06:45:42;;;;;;;6.65;1.35;;;;;;;;;;6070375;23;20447;-81
2022/07/10 06:48:09;;;;;;;9.48;1.50;;;;;;;;;;6070820;23;20029;-79
2022/07/10 06:50:37;;;;;;;11.13;2.15;;;;;;;;;;6070887;23;20031;-80
2022/07/10 06:53:04;;;;;;;7.20;1.80;;;;;;;;;;6070979;23;20027;-80
2022/07/10 06:55:32;;;;;;;10.95;2.20;;;;;;;;;;6070933;23;20023;-79
2022/07/10 06:57:59;;;;;;;9.05;1.80;;;;;;;;;;6045105;23;20030;-80
2022/07/10 07:00:27;;;;;;;9.40;1.83;;;;;;;;;;6070838;23;20075;-80
2022/07/10 07:02:54;;;;;;;7.63;1.70;;;;;;;;;;6071035;23;20762;-80
2022/07/10 07:05:21;;;;;;;9.13;1.77;;;;;;;;;;6070162;23;20080;-80
2022/07/10 07:07:48;;;;;;;10.90;1.63;;;;;;;;;;6070481;23;20103;-79
2022/07/10 07:10:15;;;;;;;6.20;1.48;;;;;;;;;;6070801;23;20110;-80
2022/07/10 07:12:42;;;;;;;9.57;1.60;;;;;;;;;;6070845;23;20050;-79
2022/07/10 07:15:09;;;;;;;10.55;2.08;;;;;;;;;;6070932;23;20477;-80
2022/07/10 07:23:38;;;;;;;5.95;1.40;;;;;;;;;;6010407;23;20844;-79
2022/07/10 07:26:06;;;;;;;10.68;1.77;;;;;;;;;;6010443;23;20016;-80
2022/07/10 07:28:33;;;;;;;9.32;1.90;;;;;;;;;;5987000;23;20948;-79
2022/07/10 07:31:00;;;;;;;5.18;1.70;;;;;;;;;;5986632;23;20059;-79
2022/07/10 07:33:27;;;;;;;8.93;1.70;;;;;;;;;;6009297;23;20885;-78
2022/07/10 07:36:06;;;;;;;7.38;1.55;;;;;;;;;;6010781;23;20455;-79
2022/07/10 07:38:36;;;;;;;6.53;1.50;;;;;;;;;;6010669;23;20028;-79
2022/07/10 07:41:06;;;;;;;10.23;1.80;;;;;;;;;;6010214;23;20551;-78
2022/07/10 07:43:34;;;;;;;6.95;1.50;;;;;;;;;;6010231;23;20035;-79
2022/07/10 07:46:01;;;;;;;10.88;1.75;;;;;;;;;;6010517;23;20028;-80
2022/07/10 07:48:28;;;;;;;8.63;1.70;;;;;;;;;;5986843;23;20119;-80
2022/07/10 07:50:55;;;;;;;8.90;1.88;;;;;;;;;;6023055;23;20495;-79
2022/07/10 07:53:22;;;;;;;9.50;1.70;;;;;;;;;;6070498;23;20043;-79
2022/07/10 07:55:49;;;;;;;9.95;1.63;;;;;;;;;;6045284;23;20464;-78
2022/07/10 07:58:20;;;;;;;8.15;1.30;;;;;;;;;;6069847;23;20031;-79
2022/07/10 08:00:48;;;;;;;5.90;1.70;;;;;;;;;;6070866;23;20925;-79
2022/07/10 08:03:15;;;;;;;7.30;1.65;;;;;;;;;;6045229;23;20027;-79
2022/07/10 08:05:43;;;;;;;7.15;1.83;;;;;;;;;;6070546;23;20051;-79
2022/07/10 08:08:19;;;;;;;7.18;1.40;;;;;;;;;;6070337;23;20030;-79
2022/07/10 08:11:30;;;;;;;7.55;1.60;;;;;;;;;;6070426;23;20110;-79
2022/07/10 08:14:14;;;;;;;9.93;1.70;;;;;;;;;;6033257;23;20046;-80
2022/07/10 08:16:41;;;;;;;9.50;1.73;;;;;;;;;;6070473;23;20053;-79
2022/07/10 08:19:10;;;;;;;6.20;1.90;;;;;;;;;;6069858;23;20540;-79
2022/07/10 08:21:39;;;;;;;5.85;1.50;;;;;;;;;;6070575;23;20032;-79
2022/07/10 08:24:06;;;;;;;8.35;1.63;;;;;;;;;;6044356;23;20023;-79
2022/07/10 08:26:36;;;;;;;7.50;1.73;;;;;;;;;;6070624;23;20548;-78
2022/07/10 08:29:03;;;;;;;5.32;1.20;;;;;;;;;;6070398;23;20094;-79
2022/07/10 08:31:39;;;;;;;6.97;1.40;;;;;;;;;;6070809;23;20122;-78
2022/07/10 08:34:06;;;;;;;4.75;1.40;;;;;;;;;;6070113;23;20027;-79
2022/07/10 08:36:33;;;;;;;4.50;1.40;;;;;;;;;;6044949;23;20107;-79
2022/07/10 08:39:16;;;;;;;8.60;1.70;;;;;;;;;;6070596;23;20062;-80
2022/07/10 08:41:45;;;;;;;6.78;1.50;;;;;;;;;;6070561;23;21245;-79
2022/07/10 08:44:13;;;;;;;6.38;1.45;;;;;;;;;;6070262;23;20045;-79
2022/07/10 08:46:40;;;;;;;8.35;1.60;;;;;;;;;;6070461;23;20027;-79
2022/07/10 08:49:13;;;;;;;7.30;1.80;;;;;;;;;;6069813;23;20572;-79
2022/07/10 08:51:59;;;;;;;7.63;1.42;;;;;;;;;;6070322;23;20043;-79
2022/07/10 08:54:28;;;;;;;6.63;1.30;;;;;;;;;;6070452;23;20027;-79
2022/07/10 08:57:00;;;;;;;5.68;1.40;;;;;;;;;;6070314;23;20058;-79
2022/07/10 08:59:28;;;;;;;3.88;1.35;;;;;;;;;;6069998;23;20094;-79
2022/07/10 09:01:58;;;;;;;5.97;1.48;;;;;;;;;;6070506;23;20032;-79
2022/07/10 09:04:26;;;;;;;5.63;1.70;;;;;;;;;;6070083;23;20024;-80
2022/07/10 09:06:54;;;;;;;5.75;1.50;;;;;;;;;;6070042;23;20027;-79
2022/07/10 09:09:21;;;;;;;6.68;1.42;;;;;;;;;;6044163;23;20027;-78
2022/07/10 09:11:49;;;;;;;4.85;1.75;;;;;;;;;;6070286;23;20822;-79
2022/07/10 09:14:22;;;;;;;4.95;1.48;;;;;;;;;;6069428;23;20102;-79
2022/07/10 09:17:02;;;;;;;6.20;1.25;;;;;;;;;;6070443;23;20031;-78
2022/07/10 09:19:29;;;;;;;4.70;1.35;;;;;;;;;;6069651;23;20106;-79
2022/07/10 09:22:08;;;;;;;4.88;1.63;;;;;;;;;;6070063;23;20055;-79
2022/07/10 09:24:36;;;;;;;13.25;2.00;;;;;;;;;;6070233;23;20764;-79
2022/07/10 09:27:03;;;;;;;5.38;1.58;;;;;;;;;;6070287;23;20023;-81
2022/07/10 09:29:31;;;;;;;4.10;1.50;;;;;;;;;;6069214;23;20865;-79
2022/07/10 09:32:00;;;;;;;8.93;1.60;;;;;;;;;;6069940;23;20035;-79
2022/07/10 09:34:36;;;;;;;2.20;1.33;;;;;;;;;;6070160;23;20026;-79
2022/07/10 09:37:19;;;;;;;6.35;1.90;;;;;;;;;;6070080;23;20019;-79
2022/07/10 09:39:56;;;;;;;3.17;1.30;;;;;;;;;;6069262;23;20023;-80
2022/07/10 09:42:27;;;;;;;9.73;1.48;;;;;;;;;;6069951;23;20569;-79
2022/07/10 09:45:13;;;;;;;7.22;1.92;;;;;;;;;;6069849;23;20058;-79
2022/07/10 09:47:45;;;;;;;5.47;1.45;;;;;;;;;;6070544;23;20755;-79
2022/07/10 09:50:22;;;;;;;8.43;1.48;;;;;;;;;;6070144;23;20135;-80
2022/07/10 09:52:54;;;;;;;4.45;1.45;;;;;;;;;;6069566;23;20418;-79
2022/07/10 09:55:22;;;;;;;4.60;1.73;;;;;;;;;;6044275;23;20039;-79
2022/07/10 09:57:53;;;;;;;4.68;1.20;;;;;;;;;;6069963;23;20030;-79
2022/07/10 10:00:25;;;;;;;6.35;1.88;;;;;;;;;;6069885;23;20485;-79
2022/07/10 10:02:59;;;;;;;4.95;1.40;;;;;;;;;;6070217;23;20703;-80
2022/07/10 10:05:35;;;;;;;5.78;1.60;;;;;;;;;;6069634;23;20418;-79
2022/07/10 10:08:06;;;;;;;3.28;1.30;;;;;;;;;;6069353;23;20031;-79
2022/07/10 10:10:35;;;;;;;4.63;1.35;;;;;;;;;;6070034;23;20023;-79
2022/07/10 10:13:03;;;;;;;4.30;1.25;;;;;;;;;;6069419;23;20764;-79
2022/07/10 10:15:31;;;;;;;5.75;1.23;;;;;;;;;;6069739;23;20023;-79
2022/07/10 10:17:59;;;;;;;7.05;1.58;;;;;;;;;;6069164;23;20766;-80
2022/07/10 10:20:36;;;;;;;3.78;1.60;;;;;;;;;;6045415;23;20051;-79
2022/07/10 10:23:10;;;;;;;2.50;1.17;;;;;;;;;;6073454;23;20066;-79
2022/07/10 10:25:40;;;;;;;8.50;1.63;;;;;;;;;;6073711;23;20038;-80
2022/07/10 10:28:09;;;;;;;5.75;1.52;;;;;;;;;;6046043;23;20034;-79
2022/07/10 10:30:43;;;;;;;5.80;1.45;;;;;;;;;;6046972;23;20039;-79
2022/07/10 10:33:29;;;;;;;3.90;1.50;;;;;;;;;;6071127;23;20569;-79
2022/07/10 10:35:56;;;;;;;6.53;1.40;;;;;;;;;;6071367;23;20102;-80
2022/07/10 10:38:23;;;;;;;5.18;1.40;;;;;;;;;;6071101;23;20107;-78
2022/07/10 10:40:50;;;;;;;3.75;1.35;;;;;;;;;;6045919;23;20677;-79
2022/07/10 10:43:21;;;;;;;3.13;1.30;;;;;;;;;;6071480;23;20167;-80
2022/07/10 10:45:48;;;;;;;6.38;2.35;;;;;;;;;;6046394;23;20114;-80
2022/07/10 10:48:21;;;;;;;5.35;1.50;;;;;;;;;;6072156;23;20061;-79
2022/07/10 10:51:05;;;;;;;4.45;1.50;;;;;;;;;;6077992;23;20554;-80
2022/07/10 10:53:32;;;;;;;6.82;1.60;;;;;;;;;;6075135;23;20139;-79
2022/07/10 10:56:07;;;;;;;4.15;1.42;;;;;;;;;;6071640;23;20034;-79
2022/07/10 10:58:44;;;;;;;5.25;1.48;;;;;;;;;;6072448;23;20063;-79
2022/07/10 11:01:28;;;;;;;5.50;1.38;;;;;;;;;;6071744;23;20030;-80
2022/07/10 11:04:05;;;;;;;6.38;1.42;;;;;;;;;;6071190;23;20430;-79
2022/07/10 11:06:40;;;;;;;4.68;1.85;;;;;;;;;;6071722;23;20062;-79
2022/07/10 11:09:25;;;;;;;7.63;1.67;;;;;;;;;;6070801;23;20109;-79
2022/07/10 11:11:59;;;;;;;7.65;1.50;;;;;;;;;;6071183;23;20106;-79
2022/07/10 11:14:28;;;;;;;6.00;1.67;;;;;;;;;;6071023;23;20031;-79
2022/07/10 11:16:56;;;;;;;5.05;1.38;;;;;;;;;;6070536;23;20162;-79
2022/07/10 11:19:24;;;;;;;5.88;1.80;;;;;;;;;;6069962;23;20079;-79
2022/07/10 11:22:10;;;;;;;4.18;1.45;;;;;;;;;;6069890;23;20030;-79
2022/07/10 11:24:57;;;;;;;4.70;1.50;;;;;;;;;;6070644;23;20474;-78
2022/07/10 11:27:30;;;;;;;5.22;1.70;;;;;;;;;;6070667;23;20053;-79
2022/07/10 11:29:58;;;;;;;5.03;1.50;;;;;;;;;;6070421;23;20031;-79
2022/07/10 11:32:25;;;;;;;3.42;1.25;;;;;;;;;;6070223;23;20027;-80
2022/07/10 11:34:52;;;;;;;4.13;1.40;;;;;;;;;;6070275;23;20422;-79
2022/07/10 11:37:20;;;;;;;5.03;1.38;;;;;;;;;;6070487;23;20029;-79
2022/07/10 11:39:47;;;;;;;6.03;1.50;;;;;;;;;;6070685;23;20099;-79
2022/07/10 11:42:14;;;;;;;6.82;1.38;;;;;;;;;;6070613;23;20087;-80
2022/07/10 11:44:44;;;;;;;6.30;1.30;;;;;;;;;;6070613;23;20039;-80
2022/07/10 11:47:12;;;;;;;3.42;1.60;;;;;;;;;;6069492;23;20776;-79
2022/07/10 11:49:45;;;;;;;2.40;1.30;;;;;;;;;;6069892;23;20049;-79
2022/07/10 11:52:12;;;;;;;1.92;1.17;;;;;;;;;;6070590;23;20457;-80
2022/07/10 11:54:40;;;;;;;3.63;1.40;;;;;;;;;;6070893;23;20036;-79
2022/07/10 11:57:08;;;;;;;4.03;1.30;;;;;;;;;;6070139;23;20106;-79
2022/07/10 11:59:35;;;;;;;8.13;1.58;;;;;;;;;;6069995;23;20023;-80
2022/07/10 12:02:02;;;;;;;3.60;1.30;;;;;;;;;;6070236;23;20098;-79
2022/07/10 12:04:31;;;;;;;5.15;1.50;;;;;;;;;;6070683;23;20138;-79
2022/07/10 12:06:58;;;;;;;3.70;1.48;;;;;;;;;;6070274;23;20043;-80
2022/07/10 12:09:28;;;;;;;5.75;1.42;;;;;;;;;;6070334;23;20027;-80
2022/07/10 12:12:02;;;;;;;2.70;1.10;;;;;;;;;;6069758;23;20027;-79
2022/07/10 12:14:30;;;;;;;3.35;1.13;;;;;;;;;;6070229;23;20032;-79
2022/07/10 12:17:16;;;;;;;2.35;1.20;;;;;;;;;;6046308;23;20027;-79
2022/07/10 12:19:45;;;;;;;4.78;1.40;;;;;;;;;;6069232;23;20083;-79
2022/07/10 12:22:13;;;;;;;4.05;1.50;;;;;;;;;;6070103;23;20027;-79
2022/07/10 12:24:41;;;;;;;4.13;1.40;;;;;;;;;;6070268;23;20114;-79
2022/07/10 12:27:09;;;;;;;6.07;1.60;;;;;;;;;;6044910;23;20034;-79
2022/07/10 12:29:36;;;;;;;3.00;1.30;;;;;;;;;;6070474;23;20027;-80
2022/07/10 12:32:03;;;;;;;2.10;1.10;;;;;;;;;;6070248;23;20051;-79
2022/07/10 12:34:42;;;;;;;4.78;1.15;;;;;;;;;;6069710;23;20055;-80
2022/07/10 12:37:10;;;;;;;5.07;1.20;;;;;;;;;;6068669;23;20470;-79
2022/07/10 12:39:41;;;;;;;5.10;1.45;;;;;;;;;;6044913;23;20034;-79
2022/07/10 12:42:08;;;;;;;4.15;1.17;;;;;;;;;;6044885;23;20032;-79
2022/07/10 12:44:47;;;;;;;4.43;1.23;;;;;;;;;;6071391;23;20111;-82
2022/07/10 12:47:15;;;;;;;3.47;1.17;;;;;;;;;;6070713;23;20805;-80
2022/07/10 12:49:52;;;;;;;3.53;1.30;;;;;;;;;;6069790;23;20079;-80
2022/07/10 12:52:25;;;;;;;5.13;1.40;;;;;;;;;;6069169;23;20114;-79
2022/07/10 12:55:14;;;;;;;4.05;1.20;;;;;;;;;;6068453;23;20466;-80
2022/07/10 12:57:58;;;;;;;6.80;1.17;;;;;;;;;;6066330;23;20062;-79
2022/07/10 13:00:29;;;;;;;4.05;1.13;;;;;;;;;;6011509;23;20491;-80
2022/07/10 13:02:59;;;;;;;2.83;1.20;;;;;;;;;;6037061;23;20023;-80
2022/07/10 13:05:34;;;;;;;3.67;1.45;;;;;;;;;;6040689;23;20028;-80
2022/07/10 13:08:22;;;;;;;4.53;1.42;;;;;;;;;;6015701;23;20026;-80
2022/07/10 13:10:51;;;;;;;3.42;1.15;;;;;;;;;;6040036;23;20112;-80
2022/07/10 13:13:18;;;;;;;3.45;1.10;;;;;;;;;;6040159;23;20788;-81
2022/07/10 13:15:49;;;;;;;5.53;1.20;;;;;;;;;;6039915;23;20024;-80
2022/07/10 13:18:21;;;;;;;5.55;1.13;;;;;;;;;;6039740;23;20432;-80
2022/07/10 13:20:55;;;;;;;4.82;1.08;;;;;;;;;;6039913;23;20051;-80
2022/07/10 13:23:27;;;;;;;2.72;1.20;;;;;;;;;;6040893;23;20912;-80
2022/07/10 13:25:55;;;;;;;4.55;1.20;;;;;;;;;;6039023;23;20765;-81
2022/07/10 13:28:24;;;;;;;4.78;1.50;;;;;;;;;;6039015;23;20024;-79
2022/07/10 13:30:51;;;;;;;4.32;1.20;;;;;;;;;;6036124;23;20027;-79
2022/07/10 13:33:18;;;;;;;5.57;1.25;;;;;;;;;;6011937;23;20023;-82
2022/07/10 13:35:45;;;;;;;2.58;1.13;;;;;;;;;;6035417;23;20034;-81
2022/07/10 13:38:13;;;;;;;5.25;1.38;;;;;;;;;;6036977;23;20055;-81
2022/07/10 13:40:44;;;;;;;4.85;1.20;;;;;;;;;;6040699;23;20717;-80
2022/07/10 13:43:16;;;;;;;5.45;1.02;;;;;;;;;;6039862;23;20031;-80
2022/07/10 13:45:43;;;;;;;3.87;1.30;;;;;;;;;;6038994;23;20380;-80
2022/07/10 13:48:11;;;;;;;4.63;1.20;;;;;;;;;;6039783;23;20023;-82
2022/07/10 13:50:39;;;;;;;4.55;1.20;;;;;;;;;;6039696;23;20103;-80
2022/07/10 13:53:15;;;;;;;3.33;1.20;;;;;;;;;;6037365;23;20032;-80
2022/07/10 13:55:45;;;;;;;2.90;1.10;;;;;;;;;;6038103;23;20031;-79
2022/07/10 13:58:12;;;;;;;3.30;1.30;;;;;;;;;;6039232;23;20135;-81
2022/07/10 14:00:39;;;;;;;4.72;1.30;;;;;;;;;;6067013;23;20115;-79
2022/07/10 14:03:07;;;;;;;3.13;1.27;;;;;;;;;;6067935;23;20046;-80
2022/07/10 14:05:34;;;;;;;2.20;1.05;;;;;;;;;;6068005;23;20063;-80
2022/07/10 14:08:02;;;;;;;3.33;1.20;;;;;;;;;;6068054;23;20024;-81
2022/07/10 14:10:29;;;;;;;3.45;1.52;;;;;;;;;;6068122;23;20024;-81
2022/07/10 14:12:57;;;;;;;4.00;1.10;;;;;;;;;;6067310;23;20063;-81
2022/07/10 14:15:24;;;;;;;4.22;1.25;;;;;;;;;;6067413;23;20110;-80
2022/07/10 14:17:51;;;;;;;5.97;1.45;;;;;;;;;;6068375;23;20828;-81
2022/07/10 14:20:19;;;;;;;3.47;1.25;;;;;;;;;;6068567;23;20027;-81
2022/07/10 14:22:47;;;;;;;4.30;1.55;;;;;;;;;;6069146;23;20023;-81
2022/07/10 14:25:14;;;;;;;5.70;1.60;;;;;;;;;;6066533;23;20167;-81
2022/07/10 14:27:46;;;;;;;3.35;1.17;;;;;;;;;;6068033;23;20050;-81
2022/07/10 14:30:13;;;;;;;5.15;1.23;;;;;;;;;;6068578;23;20030;-81
2022/07/10 14:32:40;;;;;;;2.22;1.15;;;;;;;;;;6067977;23;20311;-81
2022/07/10 14:35:08;;;;;;;3.47;1.48;;;;;;;;;;6067830;23;20034;-80
2022/07/10 14:37:35;;;;;;;4.65;1.17;;;;;;;;;;6042400;23;20027;-84
2022/07/10 14:40:03;;;;;;;4.95;1.60;;;;;;;;;;6068115;23;20028;-80
2022/07/10 14:42:30;;;;;;;4.28;1.30;;;;;;;;;;6067864;23;20765;-81
2022/07/10 14:44:58;;;;;;;5.22;1.35;;;;;;;;;;6067117;23;20674;-80
2022/07/10 14:47:28;;;;;;;7.25;1.30;;;;;;;;;;6042088;23;20788;-80
2022/07/10 14:49:56;;;;;;;5.55;1.20;;;;;;;;;;6067569;23;20027;-83
2022/07/10 14:52:25;;;;;;;3.38;1.20;;;;;;;;;;6067963;23;20028;-80
2022/07/10 14:54:52;;;;;;;5.85;1.60;;;;;;;;;;6068555;23;20051;-81
2022/07/10 14:57:19;;;;;;;4.43;1.20;;;;;;;;;;6042618;23;20095;-81
2022/07/10 14:59:46;;;;;;;5.10;1.55;;;;;;;;;;6057402;23;20027;-81
2022/07/10 15:02:14;;;;;;;3.40;1.20;;;;;;;;;;6067253;23;20051;-79